sensor_id;sensor_type;location;lat;lon;timestamp;pressure;altitude;pressure_sealevel;temperature;humidity
54146;BME280;40052;49.422;7.738;2022-11-15T00:00:25;74437.09;;;-145.25;91.40
54146;BME280;40052;49.422;7.738;2022-11-15T00:02:53;74439.09;;;-145.25;91.07
54146;BME280;40052;49.422;7.738;2022-11-15T00:05:19;74427.06;;;-145.25;90.65
54146;BME280;40052;49.422;7.738;2022-11-15T00:07:45;74429.06;;;-145.25;90.38
54146;BME280;40052;49.422;7.738;2022-11-15T00:10:15;74431.06;;;-145.25;90.84
54146;BME280;40052;49.422;7.738;2022-11-15T00:12:41;74419.06;;;-145.25;89.97
54146;BME280;40052;49.422;7.738;2022-11-15T00:15:07;74427.06;;;-145.25;90.63
54146;BME280;40052;49.422;7.738;2022-11-15T00:17:32;74419.06;;;-145.25;90.51
54146;BME280;40052;49.422;7.738;2022-11-15T00:20:00;74413.03;;;-145.25;90.47
54146;BME280;40052;49.422;7.738;2022-11-15T00:22:31;74411.03;;;-145.25;89.82
54146;BME280;40052;49.422;7.738;2022-11-15T00:24:57;74413.03;;;-145.25;89.99
54146;BME280;40052;49.422;7.738;2022-11-15T00:27:23;74409.03;;;-145.25;89.67
54146;BME280;40052;49.422;7.738;2022-11-15T00:29:50;74405.03;;;-145.25;89.76
54146;BME280;40052;49.422;7.738;2022-11-15T00:32:16;74413.03;;;-145.25;89.88
54146;BME280;40052;49.422;7.738;2022-11-15T00:34:41;74419.06;;;-145.25;90.91
54146;BME280;40052;49.422;7.738;2022-11-15T00:37:09;74419.06;;;-145.25;90.66
54146;BME280;40052;49.422;7.738;2022-11-15T00:39:34;74421.06;;;-145.25;91.50
54146;BME280;40052;49.422;7.738;2022-11-15T00:42:02;74415.03;;;-145.25;91.39
54146;BME280;40052;49.422;7.738;2022-11-15T00:44:27;74423.06;;;-145.25;91.51
54146;BME280;40052;49.422;7.738;2022-11-15T00:46:53;74411.03;;;-145.25;91.99
54146;BME280;40052;49.422;7.738;2022-11-15T00:49:18;74411.03;;;-145.25;91.71
54146;BME280;40052;49.422;7.738;2022-11-15T00:51:44;74411.03;;;-145.25;91.55
54146;BME280;40052;49.422;7.738;2022-11-15T00:54:09;74413.03;;;-145.25;92.34
54146;BME280;40052;49.422;7.738;2022-11-15T00:56:35;74411.03;;;-145.25;91.97
54146;BME280;40052;49.422;7.738;2022-11-15T00:59:02;74421.06;;;-145.25;92.53
54146;BME280;40052;49.422;7.738;2022-11-15T01:01:27;74415.03;;;-145.25;92.81
54146;BME280;40052;49.422;7.738;2022-11-15T01:03:53;74411.03;;;-145.25;92.40
54146;BME280;40052;49.422;7.738;2022-11-15T01:06:18;74393.00;;;-145.25;92.11
54146;BME280;40052;49.422;7.738;2022-11-15T01:08:44;74395.00;;;-145.25;91.28
54146;BME280;40052;49.422;7.738;2022-11-15T01:11:11;74385.00;;;-145.25;91.10
54146;BME280;40052;49.422;7.738;2022-11-15T01:13:38;74391.00;;;-145.25;90.94
54146;BME280;40052;49.422;7.738;2022-11-15T01:16:17;74387.00;;;-145.25;90.38
54146;BME280;40052;49.422;7.738;2022-11-15T01:18:44;74380.97;;;-145.25;90.57
54146;BME280;40052;49.422;7.738;2022-11-15T01:21:14;74372.97;;;-145.25;90.24
54146;BME280;40052;49.422;7.738;2022-11-15T01:23:41;74368.97;;;-145.25;90.03
54146;BME280;40052;49.422;7.738;2022-11-15T01:26:12;74376.97;;;-145.25;90.37
54146;BME280;40052;49.422;7.738;2022-11-15T01:28:41;74382.97;;;-145.25;90.08
54146;BME280;40052;49.422;7.738;2022-11-15T01:31:12;74380.97;;;-145.25;90.24
54146;BME280;40052;49.422;7.738;2022-11-15T01:33:38;74368.97;;;-145.25;89.50
54146;BME280;40052;49.422;7.738;2022-11-15T01:36:05;74370.97;;;-145.25;89.27
54146;BME280;40052;49.422;7.738;2022-11-15T01:38:31;74354.94;;;-145.25;88.53
54146;BME280;40052;49.422;7.738;2022-11-15T01:40:56;74350.94;;;-145.25;88.54
54146;BME280;40052;49.422;7.738;2022-11-15T01:43:27;74354.94;;;-145.25;88.59
54146;BME280;40052;49.422;7.738;2022-11-15T01:46:02;74346.91;;;-145.25;88.52
54146;BME280;40052;49.422;7.738;2022-11-15T01:48:33;74344.91;;;-145.25;88.48
54146;BME280;40052;49.422;7.738;2022-11-15T01:51:04;74348.91;;;-145.25;88.51
54146;BME280;40052;49.422;7.738;2022-11-15T01:53:36;74346.91;;;-145.25;88.63
54146;BME280;40052;49.422;7.738;2022-11-15T01:56:08;74344.91;;;-145.25;88.18
54146;BME280;40052;49.422;7.738;2022-11-15T01:58:35;74344.91;;;-145.25;88.19
54146;BME280;40052;49.422;7.738;2022-11-15T02:01:03;74348.91;;;-145.25;88.19
54146;BME280;40052;49.422;7.738;2022-11-15T02:03:52;74338.91;;;-145.25;88.61
54146;BME280;40052;49.422;7.738;2022-11-15T02:06:20;74350.94;;;-145.25;88.55
54146;BME280;40052;49.422;7.738;2022-11-15T02:08:49;74346.91;;;-145.25;88.64
54146;BME280;40052;49.422;7.738;2022-11-15T02:11:15;74344.91;;;-145.25;88.43
54146;BME280;40052;49.422;7.738;2022-11-15T02:13:43;74344.91;;;-145.25;88.58
54146;BME280;40052;49.422;7.738;2022-11-15T02:16:31;74344.91;;;-145.25;88.86
54146;BME280;40052;49.422;7.738;2022-11-15T02:21:51;74344.91;;;-145.25;89.10
54146;BME280;40052;49.422;7.738;2022-11-15T02:27:24;74332.88;;;-145.25;88.24
54146;BME280;40052;49.422;7.738;2022-11-15T02:33:03;74348.91;;;-145.25;89.54
54146;BME280;40052;49.422;7.738;2022-11-15T02:38:31;74352.94;;;-145.25;89.96
54146;BME280;40052;49.422;7.738;2022-11-15T02:41:04;74346.91;;;-145.25;89.93
54146;BME280;40052;49.422;7.738;2022-11-15T02:43:38;74350.94;;;-145.25;90.08
54146;BME280;40052;49.422;7.738;2022-11-15T02:46:33;74340.91;;;-145.25;90.59
54146;BME280;40052;49.422;7.738;2022-11-15T02:49:21;74348.91;;;-145.25;90.71
54146;BME280;40052;49.422;7.738;2022-11-15T02:51:48;74338.91;;;-145.25;90.40
54146;BME280;40052;49.422;7.738;2022-11-15T02:54:20;74348.91;;;-145.25;91.07
54146;BME280;40052;49.422;7.738;2022-11-15T02:56:48;74344.91;;;-145.25;90.99
54146;BME280;40052;49.422;7.738;2022-11-15T03:07:29;74340.91;;;-145.25;90.70
54146;BME280;40052;49.422;7.738;2022-11-15T03:15:12;74338.91;;;-145.25;90.76
54146;BME280;40052;49.422;7.738;2022-11-15T03:18:04;74342.91;;;-145.25;90.79
54146;BME280;40052;49.422;7.738;2022-11-15T03:20:34;74340.91;;;-145.25;91.07
54146;BME280;40052;49.422;7.738;2022-11-15T03:23:05;74340.91;;;-145.25;91.31
54146;BME280;40052;49.422;7.738;2022-11-15T03:25:33;74326.88;;;-145.25;90.86
54146;BME280;40052;49.422;7.738;2022-11-15T03:28:03;74330.88;;;-145.25;90.53
54146;BME280;40052;49.422;7.738;2022-11-15T03:30:32;74324.88;;;-145.25;90.57
54146;BME280;40052;49.422;7.738;2022-11-15T03:33:00;74324.88;;;-145.25;90.88
54146;BME280;40052;49.422;7.738;2022-11-15T03:35:34;74332.88;;;-145.25;91.35
54146;BME280;40052;49.422;7.738;2022-11-15T03:38:19;74330.88;;;-145.25;91.14
54146;BME280;40052;49.422;7.738;2022-11-15T03:40:51;74326.88;;;-145.25;91.02
54146;BME280;40052;49.422;7.738;2022-11-15T03:46:05;74330.88;;;-145.25;91.35
54146;BME280;40052;49.422;7.738;2022-11-15T03:48:37;74322.88;;;-145.25;91.17
54146;BME280;40052;49.422;7.738;2022-11-15T03:51:05;74320.88;;;-145.25;90.96
54146;BME280;40052;49.422;7.738;2022-11-15T03:53:31;74314.84;;;-145.25;90.52
54146;BME280;40052;49.422;7.738;2022-11-15T03:55:59;74324.88;;;-145.25;90.54
54146;BME280;40052;49.422;7.738;2022-11-15T03:58:26;74328.88;;;-145.25;91.35
54146;BME280;40052;49.422;7.738;2022-11-15T04:00:54;74320.88;;;-145.25;91.14
54146;BME280;40052;49.422;7.738;2022-11-15T04:03:19;74312.84;;;-145.25;91.09
54146;BME280;40052;49.422;7.738;2022-11-15T04:05:45;74316.84;;;-145.25;91.28
54146;BME280;40052;49.422;7.738;2022-11-15T04:08:12;74308.84;;;-145.25;90.78
54146;BME280;40052;49.422;7.738;2022-11-15T04:10:38;74304.84;;;-145.25;90.68
54146;BME280;40052;49.422;7.738;2022-11-15T04:13:06;74304.84;;;-145.25;91.45
54146;BME280;40052;49.422;7.738;2022-11-15T04:15:32;74310.84;;;-145.25;91.39
54146;BME280;40052;49.422;7.738;2022-11-15T04:18:00;74312.84;;;-145.25;92.14
54146;BME280;40052;49.422;7.738;2022-11-15T04:20:28;74314.84;;;-145.25;92.34
54146;BME280;40052;49.422;7.738;2022-11-15T04:23:18;74316.84;;;-145.25;92.43
54146;BME280;40052;49.422;7.738;2022-11-15T04:26:05;74308.84;;;-145.25;92.43
54146;BME280;40052;49.422;7.738;2022-11-15T04:28:33;74310.84;;;-145.25;91.79
54146;BME280;40052;49.422;7.738;2022-11-15T04:30:58;74310.84;;;-145.25;91.95
54146;BME280;40052;49.422;7.738;2022-11-15T04:33:24;74308.84;;;-145.25;92.02
54146;BME280;40052;49.422;7.738;2022-11-15T04:35:50;74298.81;;;-145.25;91.86
54146;BME280;40052;49.422;7.738;2022-11-15T04:38:36;74298.81;;;-145.25;91.99
54146;BME280;40052;49.422;7.738;2022-11-15T04:41:02;74304.84;;;-145.25;91.39
54146;BME280;40052;49.422;7.738;2022-11-15T04:43:32;74312.84;;;-145.25;91.67
54146;BME280;40052;49.422;7.738;2022-11-15T04:45:57;74306.84;;;-145.25;91.44
54146;BME280;40052;49.422;7.738;2022-11-15T04:48:26;74316.84;;;-145.25;91.57
54146;BME280;40052;49.422;7.738;2022-11-15T04:50:51;74320.88;;;-145.25;92.07
54146;BME280;40052;49.422;7.738;2022-11-15T04:53:19;74330.88;;;-145.25;92.33
54146;BME280;40052;49.422;7.738;2022-11-15T04:55:46;74334.91;;;-145.25;93.03
54146;BME280;40052;49.422;7.738;2022-11-15T04:58:11;74332.88;;;-145.25;92.31
54146;BME280;40052;49.422;7.738;2022-11-15T05:00:36;74332.88;;;-145.25;92.37
54146;BME280;40052;49.422;7.738;2022-11-15T05:03:02;74326.88;;;-145.25;92.35
54146;BME280;40052;49.422;7.738;2022-11-15T05:05:46;74332.88;;;-145.25;92.18
54146;BME280;40052;49.422;7.738;2022-11-15T05:08:11;74336.91;;;-145.25;92.19
54146;BME280;40052;49.422;7.738;2022-11-15T05:10:36;74336.91;;;-145.25;92.35
54146;BME280;40052;49.422;7.738;2022-11-15T05:13:04;74322.88;;;-145.25;92.22
54146;BME280;40052;49.422;7.738;2022-11-15T05:15:30;74330.88;;;-145.25;91.86
54146;BME280;40052;49.422;7.738;2022-11-15T05:17:59;74338.91;;;-145.25;92.12
54146;BME280;40052;49.422;7.738;2022-11-15T05:20:26;74338.91;;;-145.25;91.96
54146;BME280;40052;49.422;7.738;2022-11-15T05:22:54;74342.91;;;-145.25;92.65
54146;BME280;40052;49.422;7.738;2022-11-15T05:25:21;74344.91;;;-145.25;92.00
54146;BME280;40052;49.422;7.738;2022-11-15T05:27:47;74358.94;;;-145.25;92.60
54146;BME280;40052;49.422;7.738;2022-11-15T05:30:12;74356.94;;;-145.25;92.52
54146;BME280;40052;49.422;7.738;2022-11-15T05:32:38;74356.94;;;-145.25;92.70
54146;BME280;40052;49.422;7.738;2022-11-15T05:35:05;74362.94;;;-145.25;92.99
54146;BME280;40052;49.422;7.738;2022-11-15T05:37:32;74360.94;;;-145.25;93.16
54146;BME280;40052;49.422;7.738;2022-11-15T05:39:57;74350.94;;;-145.25;92.64
54146;BME280;40052;49.422;7.738;2022-11-15T05:42:25;74354.94;;;-145.25;92.35
54146;BME280;40052;49.422;7.738;2022-11-15T05:44:51;74360.94;;;-145.25;92.38
54146;BME280;40052;49.422;7.738;2022-11-15T05:47:21;74354.94;;;-145.25;92.31
54146;BME280;40052;49.422;7.738;2022-11-15T05:49:50;74372.97;;;-145.25;92.18
54146;BME280;40052;49.422;7.738;2022-11-15T05:52:23;74370.97;;;-145.25;92.84
54146;BME280;40052;49.422;7.738;2022-11-15T05:54:50;74370.97;;;-145.25;92.67
54146;BME280;40052;49.422;7.738;2022-11-15T05:57:16;74356.94;;;-145.25;92.37
54146;BME280;40052;49.422;7.738;2022-11-15T05:59:44;74362.94;;;-145.25;92.18
54146;BME280;40052;49.422;7.738;2022-11-15T06:02:10;74356.94;;;-145.25;91.89
54146;BME280;40052;49.422;7.738;2022-11-15T06:04:36;74376.97;;;-145.25;92.17
54146;BME280;40052;49.422;7.738;2022-11-15T06:07:03;74380.97;;;-145.25;92.36
54146;BME280;40052;49.422;7.738;2022-11-15T06:09:29;74382.97;;;-145.25;93.00
54146;BME280;40052;49.422;7.738;2022-11-15T06:11:54;74374.97;;;-145.25;92.92
54146;BME280;40052;49.422;7.738;2022-11-15T06:14:22;74372.97;;;-145.25;92.48
54146;BME280;40052;49.422;7.738;2022-11-15T06:16:47;74378.97;;;-145.25;92.48
54146;BME280;40052;49.422;7.738;2022-11-15T06:19:12;74378.97;;;-145.25;93.02
54146;BME280;40052;49.422;7.738;2022-11-15T06:21:38;74380.97;;;-145.25;92.87
54146;BME280;40052;49.422;7.738;2022-11-15T06:24:06;74387.00;;;-145.25;93.01
54146;BME280;40052;49.422;7.738;2022-11-15T06:26:32;74393.00;;;-145.25;93.38
54146;BME280;40052;49.422;7.738;2022-11-15T06:29:00;74393.00;;;-145.25;93.78
54146;BME280;40052;49.422;7.738;2022-11-15T06:31:32;74380.97;;;-145.25;92.64
54146;BME280;40052;49.422;7.738;2022-11-15T06:34:00;74403.03;;;-145.25;93.12
54146;BME280;40052;49.422;7.738;2022-11-15T06:36:28;74403.03;;;-145.25;93.25
54146;BME280;40052;49.422;7.738;2022-11-15T06:38:56;74403.03;;;-145.25;93.69
54146;BME280;40052;49.422;7.738;2022-11-15T06:41:21;74407.03;;;-145.25;93.43
54146;BME280;40052;49.422;7.738;2022-11-15T06:43:46;74409.03;;;-145.25;93.53
54146;BME280;40052;49.422;7.738;2022-11-15T06:46:16;74401.03;;;-145.25;93.84
54146;BME280;40052;49.422;7.738;2022-11-15T06:48:44;74407.03;;;-145.25;93.87
54146;BME280;40052;49.422;7.738;2022-11-15T06:51:10;74413.03;;;-145.25;93.95
54146;BME280;40052;49.422;7.738;2022-11-15T06:53:37;74409.03;;;-145.25;94.05
54146;BME280;40052;49.422;7.738;2022-11-15T06:56:10;74417.06;;;-145.25;93.87
54146;BME280;40052;49.422;7.738;2022-11-15T06:58:36;74409.03;;;-145.25;94.20
54146;BME280;40052;49.422;7.738;2022-11-15T07:01:07;74407.03;;;-145.25;94.07
54146;BME280;40052;49.422;7.738;2022-11-15T07:03:35;74413.03;;;-145.25;94.03
54146;BME280;40052;49.422;7.738;2022-11-15T07:06:01;74413.03;;;-145.25;93.99
54146;BME280;40052;49.422;7.738;2022-11-15T07:08:28;74415.03;;;-145.25;94.20
54146;BME280;40052;49.422;7.738;2022-11-15T07:10:55;74411.03;;;-145.25;94.29
54146;BME280;40052;49.422;7.738;2022-11-15T07:13:29;74409.03;;;-145.25;93.92
54146;BME280;40052;49.422;7.738;2022-11-15T07:15:57;74399.00;;;-145.25;93.79
54146;BME280;40052;49.422;7.738;2022-11-15T07:18:22;74399.00;;;-145.25;93.98
54146;BME280;40052;49.422;7.738;2022-11-15T07:20:48;74405.03;;;-145.25;93.79
54146;BME280;40052;49.422;7.738;2022-11-15T07:23:13;74409.03;;;-145.25;93.63
54146;BME280;40052;49.422;7.738;2022-11-15T07:25:38;74417.06;;;-145.25;93.69
54146;BME280;40052;49.422;7.738;2022-11-15T07:28:04;74415.03;;;-145.25;93.85
54146;BME280;40052;49.422;7.738;2022-11-15T07:30:32;74413.03;;;-145.25;93.89
54146;BME280;40052;49.422;7.738;2022-11-15T07:32:59;74413.03;;;-145.25;93.61
54146;BME280;40052;49.422;7.738;2022-11-15T07:35:26;74413.03;;;-145.25;93.67
54146;BME280;40052;49.422;7.738;2022-11-15T07:38:02;74425.06;;;-145.25;93.58
54146;BME280;40052;49.422;7.738;2022-11-15T07:40:31;74429.06;;;-145.25;93.88
54146;BME280;40052;49.422;7.738;2022-11-15T07:43:05;74425.06;;;-145.25;93.88
54146;BME280;40052;49.422;7.738;2022-11-15T07:45:33;74421.06;;;-145.25;94.13
54146;BME280;40052;49.422;7.738;2022-11-15T07:48:01;74415.03;;;-145.25;94.20
54146;BME280;40052;49.422;7.738;2022-11-15T07:50:29;74405.03;;;-145.25;94.25
54146;BME280;40052;49.422;7.738;2022-11-15T07:52:57;74399.00;;;-145.25;93.81
54146;BME280;40052;49.422;7.738;2022-11-15T07:55:24;74393.00;;;-145.25;93.95
54146;BME280;40052;49.422;7.738;2022-11-15T07:57:50;74393.00;;;-145.25;93.61
54146;BME280;40052;49.422;7.738;2022-11-15T08:00:18;74389.00;;;-145.25;93.71
54146;BME280;40052;49.422;7.738;2022-11-15T08:02:44;74376.97;;;-145.25;93.33
54146;BME280;40052;49.422;7.738;2022-11-15T08:05:09;74362.94;;;-145.25;92.84
54146;BME280;40052;49.422;7.738;2022-11-15T08:07:37;74358.94;;;-145.25;92.20
54146;BME280;40052;49.422;7.738;2022-11-15T08:10:06;74358.94;;;-145.25;92.40
54146;BME280;40052;49.422;7.738;2022-11-15T08:12:35;74354.94;;;-145.25;92.46
54146;BME280;40052;49.422;7.738;2022-11-15T08:15:01;74358.94;;;-145.25;92.36
54146;BME280;40052;49.422;7.738;2022-11-15T08:17:26;74350.94;;;-145.25;92.15
54146;BME280;40052;49.422;7.738;2022-11-15T08:19:51;74350.94;;;-145.25;92.02
54146;BME280;40052;49.422;7.738;2022-11-15T08:22:17;74342.91;;;-145.25;92.00
54146;BME280;40052;49.422;7.738;2022-11-15T08:24:45;74340.91;;;-145.25;92.06
54146;BME280;40052;49.422;7.738;2022-11-15T08:27:11;74332.88;;;-145.25;91.99
54146;BME280;40052;49.422;7.738;2022-11-15T08:29:43;74320.88;;;-145.25;91.30
54146;BME280;40052;49.422;7.738;2022-11-15T08:32:11;74316.84;;;-145.25;91.13
54146;BME280;40052;49.422;7.738;2022-11-15T08:34:37;74314.84;;;-145.25;90.43
54146;BME280;40052;49.422;7.738;2022-11-15T08:37:05;74308.84;;;-145.25;90.60
54146;BME280;40052;49.422;7.738;2022-11-15T08:39:35;74298.81;;;-145.25;90.23
54146;BME280;40052;49.422;7.738;2022-11-15T08:42:01;74300.84;;;-145.25;89.78
54146;BME280;40052;49.422;7.738;2022-11-15T08:44:26;74294.81;;;-145.25;89.62
54146;BME280;40052;49.422;7.738;2022-11-15T08:46:54;74288.81;;;-145.25;89.28
54146;BME280;40052;49.422;7.738;2022-11-15T08:49:22;74284.78;;;-145.25;89.46
54146;BME280;40052;49.422;7.738;2022-11-15T08:51:47;74276.78;;;-145.25;88.78
54146;BME280;40052;49.422;7.738;2022-11-15T08:54:15;74268.78;;;-145.25;88.59
54146;BME280;40052;49.422;7.738;2022-11-15T08:56:43;74280.78;;;-145.25;89.39
54146;BME280;40052;49.422;7.738;2022-11-15T08:59:08;74274.78;;;-145.25;89.29
54146;BME280;40052;49.422;7.738;2022-11-15T09:01:36;74270.78;;;-145.25;88.85
54146;BME280;40052;49.422;7.738;2022-11-15T09:04:01;74270.78;;;-145.25;89.01
54146;BME280;40052;49.422;7.738;2022-11-15T09:06:29;74264.75;;;-145.25;89.10
54146;BME280;40052;49.422;7.738;2022-11-15T09:08:54;74258.75;;;-145.25;88.81
54146;BME280;40052;49.422;7.738;2022-11-15T09:11:19;74248.72;;;-145.25;88.71
54146;BME280;40052;49.422;7.738;2022-11-15T09:13:47;74238.72;;;-145.25;87.64
54146;BME280;40052;49.422;7.738;2022-11-15T09:16:15;74226.69;;;-145.25;87.19
54146;BME280;40052;49.422;7.738;2022-11-15T09:18:41;74226.69;;;-145.25;87.01
54146;BME280;40052;49.422;7.738;2022-11-15T09:21:09;74222.69;;;-145.25;86.69
54146;BME280;40052;49.422;7.738;2022-11-15T09:23:34;74224.69;;;-145.25;86.60
54146;BME280;40052;49.422;7.738;2022-11-15T09:26:01;74216.66;;;-145.25;86.33
54146;BME280;40052;49.422;7.738;2022-11-15T09:28:28;74204.66;;;-145.25;85.99
54146;BME280;40052;49.422;7.738;2022-11-15T09:31:01;74200.63;;;-145.25;85.67
54146;BME280;40052;49.422;7.738;2022-11-15T09:33:27;74190.63;;;-145.25;84.78
54146;BME280;40052;49.422;7.738;2022-11-15T09:35:56;74184.63;;;-145.25;84.15
54146;BME280;40052;49.422;7.738;2022-11-15T09:38:24;74194.63;;;-145.25;84.38
54146;BME280;40052;49.422;7.738;2022-11-15T09:40:53;74190.63;;;-145.25;84.15
54146;BME280;40052;49.422;7.738;2022-11-15T09:43:29;74192.63;;;-145.25;84.42
54146;BME280;40052;49.422;7.738;2022-11-15T09:46:20;74192.63;;;-145.25;84.18
54146;BME280;40052;49.422;7.738;2022-11-15T09:51:24;74186.63;;;-145.25;85.14
54146;BME280;40052;49.422;7.738;2022-11-15T10:05:04;74164.56;;;-145.25;85.35
54146;BME280;40052;49.422;7.738;2022-11-15T10:12:49;74134.53;;;-145.25;83.85
54146;BME280;40052;49.422;7.738;2022-11-15T10:15:18;74130.50;;;-145.25;84.07
54146;BME280;40052;49.422;7.738;2022-11-15T10:20:25;74068.41;;;-145.25;77.95
54146;BME280;40052;49.422;7.738;2022-11-15T10:22:54;74052.38;;;-145.25;78.16
54146;BME280;40052;49.422;7.738;2022-11-15T10:25:36;74038.34;;;-145.25;75.88
54146;BME280;40052;49.422;7.738;2022-11-15T10:28:29;74016.31;;;-145.25;75.36
54146;BME280;40052;49.422;7.738;2022-11-15T10:31:00;73996.25;;;-145.25;74.65
54146;BME280;40052;49.422;7.738;2022-11-15T10:33:31;73978.22;;;-145.25;74.04
54146;BME280;40052;49.422;7.738;2022-11-15T10:38:33;73968.22;;;-145.25;73.69
54146;BME280;40052;49.422;7.738;2022-11-15T10:41:06;73964.22;;;-145.25;71.94
54146;BME280;40052;49.422;7.738;2022-11-15T10:43:32;73960.19;;;-145.25;71.13
54146;BME280;40052;49.422;7.738;2022-11-15T10:46:18;73958.19;;;-145.25;71.97
54146;BME280;40052;49.422;7.738;2022-11-15T10:48:44;73956.19;;;-145.25;72.15
54146;BME280;40052;49.422;7.738;2022-11-15T10:51:20;73952.19;;;-145.25;70.54
54146;BME280;40052;49.422;7.738;2022-11-15T10:53:51;73950.19;;;-145.25;70.24
54146;BME280;40052;49.422;7.738;2022-11-15T10:56:21;73956.19;;;-145.25;70.99
54146;BME280;40052;49.422;7.738;2022-11-15T10:58:55;73948.19;;;-145.25;71.12
54146;BME280;40052;49.422;7.738;2022-11-15T11:01:26;73932.16;;;-145.25;72.13
54146;BME280;40052;49.422;7.738;2022-11-15T11:04:03;73922.13;;;-145.25;71.76
54146;BME280;40052;49.422;7.738;2022-11-15T11:06:29;73904.09;;;-145.25;71.44
54146;BME280;40052;49.422;7.738;2022-11-15T11:08:57;73892.06;;;-145.25;70.46
54146;BME280;40052;49.422;7.738;2022-11-15T11:14:22;73878.06;;;-145.25;70.38
54146;BME280;40052;49.422;7.738;2022-11-15T11:20:16;73864.03;;;-145.25;70.88
54146;BME280;40052;49.422;7.738;2022-11-15T11:25:34;73840.00;;;-145.25;69.97
54146;BME280;40052;49.422;7.738;2022-11-15T11:31:34;73761.84;;;-145.25;67.32
54146;BME280;40052;49.422;7.738;2022-11-15T11:34:14;73725.78;;;-145.25;65.74
54146;BME280;40052;49.422;7.738;2022-11-15T11:37:04;73775.88;;;-145.25;66.98
54146;BME280;40052;49.422;7.738;2022-11-15T11:40:01;73749.81;;;-145.25;66.79
54146;BME280;40052;49.422;7.738;2022-11-15T11:48:12;73795.91;;;-145.25;67.13
54146;BME280;40052;49.422;7.738;2022-11-15T11:50:39;73781.88;;;-145.25;67.23
54146;BME280;40052;49.422;7.738;2022-11-15T11:53:12;73783.88;;;-145.25;66.92
54146;BME280;40052;49.422;7.738;2022-11-15T11:55:48;73787.91;;;-145.25;66.37
54146;BME280;40052;49.422;7.738;2022-11-15T11:58:34;73785.88;;;-145.25;66.26
54146;BME280;40052;49.422;7.738;2022-11-15T12:01:23;73795.91;;;-145.25;66.51
54146;BME280;40052;49.422;7.738;2022-11-15T12:04:09;73797.91;;;-145.25;65.70
54146;BME280;40052;49.422;7.738;2022-11-15T12:06:50;73811.94;;;-145.25;66.69
54146;BME280;40052;49.422;7.738;2022-11-15T12:09:41;73805.94;;;-145.25;66.47
54146;BME280;40052;49.422;7.738;2022-11-15T12:12:13;73793.91;;;-145.25;65.91
54146;BME280;40052;49.422;7.738;2022-11-15T12:17:29;73795.91;;;-145.25;66.36
54146;BME280;40052;49.422;7.738;2022-11-15T12:20:25;73787.91;;;-145.25;65.76
54146;BME280;40052;49.422;7.738;2022-11-15T12:23:04;73759.84;;;-145.25;65.09
54146;BME280;40052;49.422;7.738;2022-11-15T12:25:35;73743.81;;;-145.25;65.15
54146;BME280;40052;49.422;7.738;2022-11-15T12:28:19;73713.75;;;-145.25;64.70
54146;BME280;40052;49.422;7.738;2022-11-15T12:30:53;73711.75;;;-145.25;63.96
54146;BME280;40052;49.422;7.738;2022-11-15T12:33:38;73651.66;;;-145.25;63.12
54146;BME280;40052;49.422;7.738;2022-11-15T12:36:36;73635.63;;;-145.25;61.55
54146;BME280;40052;49.422;7.738;2022-11-15T12:39:10;73645.66;;;-145.25;61.96
54146;BME280;40052;49.422;7.738;2022-11-15T12:41:38;73667.69;;;-145.25;63.21
54146;BME280;40052;49.422;7.738;2022-11-15T12:44:04;73687.72;;;-145.25;63.85
54146;BME280;40052;49.422;7.738;2022-11-15T12:49:24;73677.69;;;-145.25;63.56
54146;BME280;40052;49.422;7.738;2022-11-15T13:02:43;73585.53;;;-145.25;60.69
54146;BME280;40052;49.422;7.738;2022-11-15T13:17:55;73665.69;;;-145.25;64.05
54146;BME280;40052;49.422;7.738;2022-11-15T13:20:32;73673.69;;;-145.25;63.93
54146;BME280;40052;49.422;7.738;2022-11-15T13:30:53;73687.72;;;-145.25;65.52
54146;BME280;40052;49.422;7.738;2022-11-15T13:33:35;73691.72;;;-145.25;66.03
54146;BME280;40052;49.422;7.738;2022-11-15T13:36:04;73677.69;;;-145.25;65.89
54146;BME280;40052;49.422;7.738;2022-11-15T13:40:59;73681.72;;;-145.25;66.05
54146;BME280;40052;49.422;7.738;2022-11-15T13:48:30;73657.66;;;-145.25;66.00
54146;BME280;40052;49.422;7.738;2022-11-15T13:50:56;73643.66;;;-145.25;66.01
54146;BME280;40052;49.422;7.738;2022-11-15T13:53:22;73651.66;;;-145.25;66.51
54146;BME280;40052;49.422;7.738;2022-11-15T13:55:50;73627.63;;;-145.25;66.21
54146;BME280;40052;49.422;7.738;2022-11-15T13:58:17;73617.59;;;-145.25;65.89
54146;BME280;40052;49.422;7.738;2022-11-15T14:00:44;73611.59;;;-145.25;65.84
54146;BME280;40052;49.422;7.738;2022-11-15T14:06:07;73623.59;;;-145.25;65.71
54146;BME280;40052;49.422;7.738;2022-11-15T14:08:41;73621.59;;;-145.25;65.93
54146;BME280;40052;49.422;7.738;2022-11-15T14:11:17;73635.63;;;-145.25;66.30
54146;BME280;40052;49.422;7.738;2022-11-15T14:16:36;73639.63;;;-145.25;66.74
54146;BME280;40052;49.422;7.738;2022-11-15T14:19:03;73631.63;;;-145.25;66.35
54146;BME280;40052;49.422;7.738;2022-11-15T14:21:29;73643.66;;;-145.25;66.57
54146;BME280;40052;49.422;7.738;2022-11-15T14:24:17;73641.63;;;-145.25;66.58
54146;BME280;40052;49.422;7.738;2022-11-15T14:26:43;73643.66;;;-145.25;66.92
54146;BME280;40052;49.422;7.738;2022-11-15T14:29:31;73637.63;;;-145.25;66.87
54146;BME280;40052;49.422;7.738;2022-11-15T14:32:28;73647.66;;;-145.25;67.35
54146;BME280;40052;49.422;7.738;2022-11-15T14:35:03;73643.66;;;-145.25;67.37
54146;BME280;40052;49.422;7.738;2022-11-15T14:37:33;73647.66;;;-145.25;67.39
54146;BME280;40052;49.422;7.738;2022-11-15T14:40:04;73643.66;;;-145.25;67.50
54146;BME280;40052;49.422;7.738;2022-11-15T14:42:32;73655.66;;;-145.25;67.34
54146;BME280;40052;49.422;7.738;2022-11-15T14:44:58;73657.66;;;-145.25;68.14
54146;BME280;40052;49.422;7.738;2022-11-15T14:47:25;73647.66;;;-145.25;67.54
54146;BME280;40052;49.422;7.738;2022-11-15T14:49:53;73659.66;;;-145.25;67.79
54146;BME280;40052;49.422;7.738;2022-11-15T14:52:29;73649.66;;;-145.25;67.71
54146;BME280;40052;49.422;7.738;2022-11-15T14:54:59;73651.66;;;-145.25;67.17